Kopperl, Texas
Current Conditions -  °F | °C
As of 1:55 AM on Sunday 26 Oct 2014 (Local Time) from KCPT Reporting Station
Clear Clear  
Wind Chill: 66°   Ceiling: Unl
Heat Index: 66°   Visibility: 10mi
Dew Point: 63°   Wind: 6mph
Humidity: 88%   Direction: 180°S
Pressure: 30.06"   Gusts: NA
Location:  32.07°N, 97.5°W
Report Text: KCPT 260655Z AUTO 18005KT 10SM CLR 19/17 A3006 RMK AO2
Loading
Personal Weather Stations






























Interactive Weather Map
Tropical Storm Tracking
New forecast layout! Learn more

10-Day Weather Forecast

Advertisements
Track Severe Weather on mobile